sensor_id;sensor_type;location;lat;lon;timestamp;P1;durP1;ratioP1;P2;durP2;ratioP2
51298;SDS011;37382;45.192;9.790;2024-01-11T05:24:59;39.58;;;23.88;;
51298;SDS011;37382;45.192;9.790;2024-01-11T05:27:27;94.32;;;40.63;;
51298;SDS011;37382;45.192;9.790;2024-01-11T05:29:54;122.90;;;46.88;;
51298;SDS011;37382;45.192;9.790;2024-01-11T05:32:22;72.82;;;32.90;;
51298;SDS011;37382;45.192;9.790;2024-01-11T05:34:50;43.38;;;25.83;;
51298;SDS011;37382;45.192;9.790;2024-01-11T05:37:17;46.92;;;25.08;;
51298;SDS011;37382;45.192;9.790;2024-01-11T05:39:47;44.35;;;24.38;;
51298;SDS011;37382;45.192;9.790;2024-01-11T05:42:16;43.05;;;24.02;;
51298;SDS011;37382;45.192;9.790;2024-01-11T05:44:43;40.17;;;23.00;;
51298;SDS011;37382;45.192;9.790;2024-01-11T05:47:11;41.10;;;23.13;;
51298;SDS011;37382;45.192;9.790;2024-01-11T05:49:38;43.15;;;26.60;;
51298;SDS011;37382;45.192;9.790;2024-01-11T05:52:06;45.25;;;27.35;;
51298;SDS011;37382;45.192;9.790;2024-01-11T05:54:33;38.28;;;23.15;;
51298;SDS011;37382;45.192;9.790;2024-01-11T05:57:00;36.95;;;22.42;;
51298;SDS011;37382;45.192;9.790;2024-01-11T05:59:28;39.25;;;23.13;;
51298;SDS011;37382;45.192;9.790;2024-01-11T06:01:56;39.53;;;22.60;;
51298;SDS011;37382;45.192;9.790;2024-01-11T06:04:27;36.30;;;23.67;;
51298;SDS011;37382;45.192;9.790;2024-01-11T06:06:54;41.30;;;23.42;;
51298;SDS011;37382;45.192;9.790;2024-01-11T06:09:22;39.55;;;23.80;;
51298;SDS011;37382;45.192;9.790;2024-01-11T06:11:49;49.00;;;23.95;;
51298;SDS011;37382;45.192;9.790;2024-01-11T06:14:17;32.95;;;21.65;;
51298;SDS011;37382;45.192;9.790;2024-01-11T06:16:44;28.10;;;19.35;;
51298;SDS011;37382;45.192;9.790;2024-01-11T06:19:11;31.13;;;19.67;;
51298;SDS011;37382;45.192;9.790;2024-01-11T06:21:39;28.52;;;20.27;;
51298;SDS011;37382;45.192;9.790;2024-01-11T06:24:06;34.00;;;20.75;;
51298;SDS011;37382;45.192;9.790;2024-01-11T06:26:34;33.33;;;22.98;;
51298;SDS011;37382;45.192;9.790;2024-01-11T06:29:02;38.25;;;21.35;;
51298;SDS011;37382;45.192;9.790;2024-01-11T06:31:30;34.50;;;21.88;;
51298;SDS011;37382;45.192;9.790;2024-01-11T06:33:57;33.63;;;21.58;;
51298;SDS011;37382;45.192;9.790;2024-01-11T06:36:25;38.05;;;21.67;;
51298;SDS011;37382;45.192;9.790;2024-01-11T06:38:52;46.38;;;22.35;;
51298;SDS011;37382;45.192;9.790;2024-01-11T06:41:19;32.38;;;21.63;;
51298;SDS011;37382;45.192;9.790;2024-01-11T06:43:47;42.70;;;22.80;;
51298;SDS011;37382;45.192;9.790;2024-01-11T06:46:19;56.35;;;24.35;;
51298;SDS011;37382;45.192;9.790;2024-01-11T06:48:47;39.13;;;23.85;;
51298;SDS011;37382;45.192;9.790;2024-01-11T06:51:16;33.97;;;22.10;;
51298;SDS011;37382;45.192;9.790;2024-01-11T06:53:43;34.55;;;22.20;;
51298;SDS011;37382;45.192;9.790;2024-01-11T06:58:43;36.17;;;23.33;;
51298;SDS011;37382;45.192;9.790;2024-01-11T07:01:11;36.88;;;22.30;;
51298;SDS011;37382;45.192;9.790;2024-01-11T07:03:39;35.25;;;22.13;;
51298;SDS011;37382;45.192;9.790;2024-01-11T07:06:07;35.83;;;22.65;;
51298;SDS011;37382;45.192;9.790;2024-01-11T07:08:35;31.60;;;21.15;;
51298;SDS011;37382;45.192;9.790;2024-01-11T07:11:02;35.60;;;21.83;;
51298;SDS011;37382;45.192;9.790;2024-01-11T07:13:30;33.70;;;21.58;;
51298;SDS011;37382;45.192;9.790;2024-01-11T07:16:00;37.38;;;24.52;;
51298;SDS011;37382;45.192;9.790;2024-01-11T07:18:30;36.13;;;23.58;;
51298;SDS011;37382;45.192;9.790;2024-01-11T07:20:58;42.85;;;24.13;;
51298;SDS011;37382;45.192;9.790;2024-01-11T07:23:26;36.42;;;24.65;;
51298;SDS011;37382;45.192;9.790;2024-01-11T07:25:54;46.05;;;29.02;;
51298;SDS011;37382;45.192;9.790;2024-01-11T07:28:22;39.00;;;26.90;;
51298;SDS011;37382;45.192;9.790;2024-01-11T07:30:52;43.17;;;26.50;;
51298;SDS011;37382;45.192;9.790;2024-01-11T07:33:20;33.55;;;23.58;;
51298;SDS011;37382;45.192;9.790;2024-01-11T07:35:48;39.28;;;24.13;;
51298;SDS011;37382;45.192;9.790;2024-01-11T07:38:16;42.63;;;24.10;;
51298;SDS011;37382;45.192;9.790;2024-01-11T07:40:43;38.67;;;23.05;;
51298;SDS011;37382;45.192;9.790;2024-01-11T07:43:11;34.65;;;23.27;;
51298;SDS011;37382;45.192;9.790;2024-01-11T07:45:38;39.60;;;22.02;;
51298;SDS011;37382;45.192;9.790;2024-01-11T07:48:06;35.28;;;23.30;;
51298;SDS011;37382;45.192;9.790;2024-01-11T07:50:34;38.97;;;24.70;;
51298;SDS011;37382;45.192;9.790;2024-01-11T07:53:02;39.47;;;25.98;;
51298;SDS011;37382;45.192;9.790;2024-01-11T07:55:30;41.80;;;26.38;;
51298;SDS011;37382;45.192;9.790;2024-01-11T07:57:58;36.08;;;24.73;;
51298;SDS011;37382;45.192;9.790;2024-01-11T08:00:26;40.17;;;24.45;;
51298;SDS011;37382;45.192;9.790;2024-01-11T08:02:53;43.22;;;24.73;;
51298;SDS011;37382;45.192;9.790;2024-01-11T08:05:21;46.33;;;27.65;;
51298;SDS011;37382;45.192;9.790;2024-01-11T08:07:49;54.47;;;30.70;;
51298;SDS011;37382;45.192;9.790;2024-01-11T08:10:16;51.63;;;28.95;;
51298;SDS011;37382;45.192;9.790;2024-01-11T08:12:44;48.20;;;29.08;;
51298;SDS011;37382;45.192;9.790;2024-01-11T08:15:11;51.13;;;28.05;;
51298;SDS011;37382;45.192;9.790;2024-01-11T08:17:45;42.90;;;26.02;;
51298;SDS011;37382;45.192;9.790;2024-01-11T08:20:15;48.42;;;26.08;;
51298;SDS011;37382;45.192;9.790;2024-01-11T08:22:42;45.13;;;24.70;;
51298;SDS011;37382;45.192;9.790;2024-01-11T08:25:15;47.00;;;25.23;;
51298;SDS011;37382;45.192;9.790;2024-01-11T08:27:44;45.25;;;26.02;;
51298;SDS011;37382;45.192;9.790;2024-01-11T08:30:12;45.13;;;24.33;;
51298;SDS011;37382;45.192;9.790;2024-01-11T08:32:40;42.38;;;23.58;;
51298;SDS011;37382;45.192;9.790;2024-01-11T08:35:09;40.50;;;22.52;;
51298;SDS011;37382;45.192;9.790;2024-01-11T08:37:40;35.90;;;22.20;;
51298;SDS011;37382;45.192;9.790;2024-01-11T08:40:07;40.42;;;24.33;;
51298;SDS011;37382;45.192;9.790;2024-01-11T08:42:36;44.03;;;24.30;;
51298;SDS011;37382;45.192;9.790;2024-01-11T08:45:05;41.75;;;24.35;;
51298;SDS011;37382;45.192;9.790;2024-01-11T08:47:34;42.83;;;24.98;;
51298;SDS011;37382;45.192;9.790;2024-01-11T08:50:02;45.95;;;24.90;;
51298;SDS011;37382;45.192;9.790;2024-01-11T08:52:33;40.55;;;24.77;;
51298;SDS011;37382;45.192;9.790;2024-01-11T08:55:00;47.00;;;25.05;;
51298;SDS011;37382;45.192;9.790;2024-01-11T08:57:28;44.30;;;25.85;;
51298;SDS011;37382;45.192;9.790;2024-01-11T08:59:56;41.35;;;26.30;;
51298;SDS011;37382;45.192;9.790;2024-01-11T09:02:24;46.22;;;26.05;;
51298;SDS011;37382;45.192;9.790;2024-01-11T09:04:53;42.60;;;25.00;;
51298;SDS011;37382;45.192;9.790;2024-01-11T09:07:21;48.35;;;24.63;;
51298;SDS011;37382;45.192;9.790;2024-01-11T09:09:48;43.28;;;25.52;;
51298;SDS011;37382;45.192;9.790;2024-01-11T09:12:23;42.63;;;25.52;;
51298;SDS011;37382;45.192;9.790;2024-01-11T09:14:50;44.88;;;25.95;;
51298;SDS011;37382;45.192;9.790;2024-01-11T09:17:17;48.30;;;24.63;;
51298;SDS011;37382;45.192;9.790;2024-01-11T09:19:45;44.75;;;27.75;;
51298;SDS011;37382;45.192;9.790;2024-01-11T09:22:12;48.25;;;26.25;;
51298;SDS011;37382;45.192;9.790;2024-01-11T09:24:40;44.70;;;26.70;;
51298;SDS011;37382;45.192;9.790;2024-01-11T09:27:07;45.08;;;27.98;;
51298;SDS011;37382;45.192;9.790;2024-01-11T09:29:35;45.25;;;26.77;;
51298;SDS011;37382;45.192;9.790;2024-01-11T09:32:02;48.25;;;27.10;;
51298;SDS011;37382;45.192;9.790;2024-01-11T09:34:30;51.30;;;26.65;;
51298;SDS011;37382;45.192;9.790;2024-01-11T09:36:58;45.13;;;26.88;;
51298;SDS011;37382;45.192;9.790;2024-01-11T09:39:26;46.67;;;26.70;;
51298;SDS011;37382;45.192;9.790;2024-01-11T09:41:58;51.88;;;29.98;;
51298;SDS011;37382;45.192;9.790;2024-01-11T09:44:34;48.85;;;27.73;;
51298;SDS011;37382;45.192;9.790;2024-01-11T09:47:01;55.10;;;29.00;;
51298;SDS011;37382;45.192;9.790;2024-01-11T09:49:30;50.13;;;28.63;;
51298;SDS011;37382;45.192;9.790;2024-01-11T09:52:00;50.13;;;29.48;;
51298;SDS011;37382;45.192;9.790;2024-01-11T09:54:29;48.30;;;26.88;;
51298;SDS011;37382;45.192;9.790;2024-01-11T09:56:58;44.65;;;26.63;;
51298;SDS011;37382;45.192;9.790;2024-01-11T09:59:26;45.65;;;25.85;;
51298;SDS011;37382;45.192;9.790;2024-01-11T10:01:54;45.30;;;27.13;;
51298;SDS011;37382;45.192;9.790;2024-01-11T10:04:21;44.67;;;27.23;;
51298;SDS011;37382;45.192;9.790;2024-01-11T10:06:49;44.83;;;26.52;;
51298;SDS011;37382;45.192;9.790;2024-01-11T10:09:18;46.03;;;25.52;;
51298;SDS011;37382;45.192;9.790;2024-01-11T10:11:46;42.92;;;26.85;;
51298;SDS011;37382;45.192;9.790;2024-01-11T10:14:15;47.25;;;28.08;;
51298;SDS011;37382;45.192;9.790;2024-01-11T10:16:43;44.33;;;27.17;;
51298;SDS011;37382;45.192;9.790;2024-01-11T10:19:13;47.55;;;26.42;;
51298;SDS011;37382;45.192;9.790;2024-01-11T10:21:44;47.92;;;26.67;;
51298;SDS011;37382;45.192;9.790;2024-01-11T10:24:17;48.03;;;27.08;;
51298;SDS011;37382;45.192;9.790;2024-01-11T10:26:45;44.55;;;26.42;;
51298;SDS011;37382;45.192;9.790;2024-01-11T10:29:13;42.25;;;25.05;;
51298;SDS011;37382;45.192;9.790;2024-01-11T10:31:41;49.78;;;27.35;;
51298;SDS011;37382;45.192;9.790;2024-01-11T10:34:08;44.03;;;26.48;;
51298;SDS011;37382;45.192;9.790;2024-01-11T10:36:36;51.13;;;29.25;;
51298;SDS011;37382;45.192;9.790;2024-01-11T10:39:04;47.85;;;28.75;;
51298;SDS011;37382;45.192;9.790;2024-01-11T10:41:36;46.70;;;29.42;;
51298;SDS011;37382;45.192;9.790;2024-01-11T10:44:25;48.05;;;27.75;;
51298;SDS011;37382;45.192;9.790;2024-01-11T10:46:57;49.15;;;27.30;;
51298;SDS011;37382;45.192;9.790;2024-01-11T10:49:26;42.15;;;25.42;;
51298;SDS011;37382;45.192;9.790;2024-01-11T10:51:58;49.05;;;28.38;;
51298;SDS011;37382;45.192;9.790;2024-01-11T10:54:27;47.30;;;26.13;;
51298;SDS011;37382;45.192;9.790;2024-01-11T10:57:00;37.97;;;24.02;;
51298;SDS011;37382;45.192;9.790;2024-01-11T10:59:28;42.38;;;24.40;;
51298;SDS011;37382;45.192;9.790;2024-01-11T11:01:57;42.22;;;26.63;;
51298;SDS011;37382;45.192;9.790;2024-01-11T11:04:31;45.10;;;26.02;;
51298;SDS011;37382;45.192;9.790;2024-01-11T11:07:02;47.30;;;27.13;;
51298;SDS011;37382;45.192;9.790;2024-01-11T11:09:30;42.72;;;24.95;;
51298;SDS011;37382;45.192;9.790;2024-01-11T11:11:59;42.38;;;24.40;;
51298;SDS011;37382;45.192;9.790;2024-01-11T11:14:28;41.25;;;26.08;;
51298;SDS011;37382;45.192;9.790;2024-01-11T11:16:55;38.35;;;24.38;;
51298;SDS011;37382;45.192;9.790;2024-01-11T11:19:23;41.30;;;24.63;;
51298;SDS011;37382;45.192;9.790;2024-01-11T11:21:51;43.40;;;24.75;;
51298;SDS011;37382;45.192;9.790;2024-01-11T11:24:19;44.42;;;25.98;;
51298;SDS011;37382;45.192;9.790;2024-01-11T11:26:47;42.85;;;24.30;;
51298;SDS011;37382;45.192;9.790;2024-01-11T11:29:15;44.78;;;26.05;;
51298;SDS011;37382;45.192;9.790;2024-01-11T11:31:44;40.25;;;24.95;;
51298;SDS011;37382;45.192;9.790;2024-01-11T11:34:14;45.92;;;25.63;;
51298;SDS011;37382;45.192;9.790;2024-01-11T11:36:42;42.47;;;25.10;;
51298;SDS011;37382;45.192;9.790;2024-01-11T11:39:13;51.53;;;27.27;;
51298;SDS011;37382;45.192;9.790;2024-01-11T11:41:40;59.63;;;30.10;;
51298;SDS011;37382;45.192;9.790;2024-01-11T11:44:11;44.50;;;25.63;;
51298;SDS011;37382;45.192;9.790;2024-01-11T11:46:43;40.17;;;23.30;;
51298;SDS011;37382;45.192;9.790;2024-01-11T11:49:12;33.33;;;21.63;;
51298;SDS011;37382;45.192;9.790;2024-01-11T11:51:42;39.83;;;23.30;;
51298;SDS011;37382;45.192;9.790;2024-01-11T11:54:10;41.90;;;24.90;;
51298;SDS011;37382;45.192;9.790;2024-01-11T11:56:38;46.13;;;25.50;;
51298;SDS011;37382;45.192;9.790;2024-01-11T11:59:06;44.78;;;24.92;;
51298;SDS011;37382;45.192;9.790;2024-01-11T12:01:33;42.63;;;24.40;;
51298;SDS011;37382;45.192;9.790;2024-01-11T12:04:02;40.38;;;23.98;;
51298;SDS011;37382;45.192;9.790;2024-01-11T12:06:30;40.38;;;24.75;;
51298;SDS011;37382;45.192;9.790;2024-01-11T12:08:57;38.63;;;24.13;;
51298;SDS011;37382;45.192;9.790;2024-01-11T12:11:25;44.78;;;25.00;;
51298;SDS011;37382;45.192;9.790;2024-01-11T12:13:53;40.33;;;25.23;;
51298;SDS011;37382;45.192;9.790;2024-01-11T12:16:23;41.17;;;24.10;;
51298;SDS011;37382;45.192;9.790;2024-01-11T12:18:51;41.63;;;25.33;;
51298;SDS011;37382;45.192;9.790;2024-01-11T12:21:19;44.95;;;25.17;;
51298;SDS011;37382;45.192;9.790;2024-01-11T12:23:47;42.53;;;25.23;;
51298;SDS011;37382;45.192;9.790;2024-01-11T12:26:16;44.30;;;24.95;;
51298;SDS011;37382;45.192;9.790;2024-01-11T12:28:49;43.10;;;23.80;;
51298;SDS011;37382;45.192;9.790;2024-01-11T12:31:17;40.53;;;24.63;;
51298;SDS011;37382;45.192;9.790;2024-01-11T12:33:47;42.13;;;25.27;;
51298;SDS011;37382;45.192;9.790;2024-01-11T12:36:16;43.78;;;24.25;;
51298;SDS011;37382;45.192;9.790;2024-01-11T12:38:47;42.63;;;26.02;;
51298;SDS011;37382;45.192;9.790;2024-01-11T12:41:20;45.53;;;25.42;;
51298;SDS011;37382;45.192;9.790;2024-01-11T12:43:50;44.03;;;24.75;;
51298;SDS011;37382;45.192;9.790;2024-01-11T12:46:17;47.22;;;26.10;;
51298;SDS011;37382;45.192;9.790;2024-01-11T12:48:45;43.60;;;25.48;;
51298;SDS011;37382;45.192;9.790;2024-01-11T12:51:15;40.95;;;26.05;;
51298;SDS011;37382;45.192;9.790;2024-01-11T12:53:48;44.20;;;26.40;;
51298;SDS011;37382;45.192;9.790;2024-01-11T12:56:17;46.03;;;27.38;;
51298;SDS011;37382;45.192;9.790;2024-01-11T12:58:46;43.45;;;26.58;;
51298;SDS011;37382;45.192;9.790;2024-01-11T13:01:14;44.95;;;28.50;;
51298;SDS011;37382;45.192;9.790;2024-01-11T13:03:46;43.00;;;26.80;;
51298;SDS011;37382;45.192;9.790;2024-01-11T13:06:15;47.15;;;27.75;;
51298;SDS011;37382;45.192;9.790;2024-01-11T13:08:44;46.42;;;26.13;;
51298;SDS011;37382;45.192;9.790;2024-01-11T13:11:12;46.05;;;27.00;;
51298;SDS011;37382;45.192;9.790;2024-01-11T13:13:41;42.97;;;26.23;;
51298;SDS011;37382;45.192;9.790;2024-01-11T13:16:08;44.13;;;27.00;;
51298;SDS011;37382;45.192;9.790;2024-01-11T13:18:39;48.78;;;26.27;;
51298;SDS011;37382;45.192;9.790;2024-01-11T13:21:07;43.80;;;26.27;;
51298;SDS011;37382;45.192;9.790;2024-01-11T13:23:35;42.00;;;27.25;;
51298;SDS011;37382;45.192;9.790;2024-01-11T13:26:05;46.08;;;26.67;;
51298;SDS011;37382;45.192;9.790;2024-01-11T13:28:33;45.55;;;26.33;;
51298;SDS011;37382;45.192;9.790;2024-01-11T13:31:01;50.90;;;27.08;;
51298;SDS011;37382;45.192;9.790;2024-01-11T13:33:29;41.80;;;25.48;;
51298;SDS011;37382;45.192;9.790;2024-01-11T13:35:58;47.38;;;27.08;;
51298;SDS011;37382;45.192;9.790;2024-01-11T13:38:26;41.33;;;26.50;;
51298;SDS011;37382;45.192;9.790;2024-01-11T13:40:54;41.03;;;26.02;;
51298;SDS011;37382;45.192;9.790;2024-01-11T13:43:22;46.17;;;25.63;;
51298;SDS011;37382;45.192;9.790;2024-01-11T13:45:50;42.55;;;25.63;;
51298;SDS011;37382;45.192;9.790;2024-01-11T13:48:17;43.97;;;26.13;;
51298;SDS011;37382;45.192;9.790;2024-01-11T13:50:45;40.65;;;25.23;;
51298;SDS011;37382;45.192;9.790;2024-01-11T13:53:12;39.55;;;25.38;;
51298;SDS011;37382;45.192;9.790;2024-01-11T13:55:40;39.35;;;25.45;;
51298;SDS011;37382;45.192;9.790;2024-01-11T13:58:08;42.47;;;26.52;;
51298;SDS011;37382;45.192;9.790;2024-01-11T14:00:35;39.72;;;25.17;;
51298;SDS011;37382;45.192;9.790;2024-01-11T14:03:03;39.55;;;26.60;;
51298;SDS011;37382;45.192;9.790;2024-01-11T14:05:33;47.53;;;26.30;;
51298;SDS011;37382;45.192;9.790;2024-01-11T14:08:00;48.90;;;26.65;;
51298;SDS011;37382;45.192;9.790;2024-01-11T14:10:28;48.83;;;25.98;;
51298;SDS011;37382;45.192;9.790;2024-01-11T14:12:56;50.30;;;25.65;;
51298;SDS011;37382;45.192;9.790;2024-01-11T14:15:23;43.88;;;25.58;;
51298;SDS011;37382;45.192;9.790;2024-01-11T14:17:51;42.28;;;25.77;;
51298;SDS011;37382;45.192;9.790;2024-01-11T14:20:19;42.88;;;27.15;;
51298;SDS011;37382;45.192;9.790;2024-01-11T14:22:49;40.08;;;26.63;;
51298;SDS011;37382;45.192;9.790;2024-01-11T14:25:18;43.70;;;25.75;;
51298;SDS011;37382;45.192;9.790;2024-01-11T14:27:49;44.10;;;25.75;;
51298;SDS011;37382;45.192;9.790;2024-01-11T14:30:17;44.40;;;26.48;;
51298;SDS011;37382;45.192;9.790;2024-01-11T14:32:44;47.58;;;27.08;;
51298;SDS011;37382;45.192;9.790;2024-01-11T14:35:13;43.65;;;27.15;;
51298;SDS011;37382;45.192;9.790;2024-01-11T14:37:41;48.30;;;28.85;;
51298;SDS011;37382;45.192;9.790;2024-01-11T14:40:09;66.38;;;43.67;;
51298;SDS011;37382;45.192;9.790;2024-01-11T14:42:38;52.83;;;29.80;;
51298;SDS011;37382;45.192;9.790;2024-01-11T14:45:06;44.70;;;26.50;;
51298;SDS011;37382;45.192;9.790;2024-01-11T14:47:34;47.17;;;28.35;;
51298;SDS011;37382;45.192;9.790;2024-01-11T14:50:03;46.97;;;26.40;;
51298;SDS011;37382;45.192;9.790;2024-01-11T14:52:31;46.38;;;29.08;;
51298;SDS011;37382;45.192;9.790;2024-01-11T14:54:59;53.28;;;31.67;;
51298;SDS011;37382;45.192;9.790;2024-01-11T14:57:27;49.72;;;29.23;;
51298;SDS011;37382;45.192;9.790;2024-01-11T14:59:54;46.25;;;29.00;;
51298;SDS011;37382;45.192;9.790;2024-01-11T15:02:21;57.30;;;35.33;;
51298;SDS011;37382;45.192;9.790;2024-01-11T15:04:49;51.00;;;32.92;;
51298;SDS011;37382;45.192;9.790;2024-01-11T15:07:16;50.83;;;30.55;;
51298;SDS011;37382;45.192;9.790;2024-01-11T15:09:44;47.28;;;28.42;;
51298;SDS011;37382;45.192;9.790;2024-01-11T15:12:12;45.13;;;28.75;;
51298;SDS011;37382;45.192;9.790;2024-01-11T15:14:39;54.30;;;29.30;;
51298;SDS011;37382;45.192;9.790;2024-01-11T15:17:07;48.78;;;28.75;;
51298;SDS011;37382;45.192;9.790;2024-01-11T15:19:35;48.05;;;29.00;;
51298;SDS011;37382;45.192;9.790;2024-01-11T15:22:02;48.28;;;28.95;;
51298;SDS011;37382;45.192;9.790;2024-01-11T15:24:30;44.67;;;28.65;;
51298;SDS011;37382;45.192;9.790;2024-01-11T15:26:59;49.17;;;28.52;;
51298;SDS011;37382;45.192;9.790;2024-01-11T15:29:29;46.25;;;28.98;;
51298;SDS011;37382;45.192;9.790;2024-01-11T15:31:56;54.03;;;28.85;;
51298;SDS011;37382;45.192;9.790;2024-01-11T15:34:24;49.83;;;30.27;;
51298;SDS011;37382;45.192;9.790;2024-01-11T15:36:51;51.65;;;30.58;;
51298;SDS011;37382;45.192;9.790;2024-01-11T15:39:20;63.15;;;41.50;;
51298;SDS011;37382;45.192;9.790;2024-01-11T15:41:55;55.95;;;36.17;;
51298;SDS011;37382;45.192;9.790;2024-01-11T15:44:28;58.42;;;37.17;;
51298;SDS011;37382;45.192;9.790;2024-01-11T15:46:56;52.15;;;32.83;;
51298;SDS011;37382;45.192;9.790;2024-01-11T15:49:24;83.00;;;48.03;;
51298;SDS011;37382;45.192;9.790;2024-01-11T15:51:52;58.38;;;32.33;;
51298;SDS011;37382;45.192;9.790;2024-01-11T15:54:19;47.83;;;30.63;;
51298;SDS011;37382;45.192;9.790;2024-01-11T15:56:48;45.95;;;28.33;;
51298;SDS011;37382;45.192;9.790;2024-01-11T15:59:16;50.30;;;30.00;;
51298;SDS011;37382;45.192;9.790;2024-01-11T16:01:45;56.38;;;36.05;;
51298;SDS011;37382;45.192;9.790;2024-01-11T16:04:29;72.30;;;42.80;;
51298;SDS011;37382;45.192;9.790;2024-01-11T16:06:57;82.75;;;47.42;;
51298;SDS011;37382;45.192;9.790;2024-01-11T16:09:25;68.63;;;40.95;;
51298;SDS011;37382;45.192;9.790;2024-01-11T16:11:55;60.42;;;37.30;;
51298;SDS011;37382;45.192;9.790;2024-01-11T16:14:31;54.45;;;34.53;;
51298;SDS011;37382;45.192;9.790;2024-01-11T16:17:01;70.00;;;39.05;;
51298;SDS011;37382;45.192;9.790;2024-01-11T16:19:30;78.13;;;48.72;;
51298;SDS011;37382;45.192;9.790;2024-01-11T16:21:58;66.78;;;40.20;;
51298;SDS011;37382;45.192;9.790;2024-01-11T16:24:25;73.70;;;40.65;;
51298;SDS011;37382;45.192;9.790;2024-01-11T16:26:54;68.22;;;40.28;;
51298;SDS011;37382;45.192;9.790;2024-01-11T16:29:21;59.58;;;37.35;;
51298;SDS011;37382;45.192;9.790;2024-01-11T16:31:49;59.92;;;37.00;;
51298;SDS011;37382;45.192;9.790;2024-01-11T16:34:17;61.88;;;38.70;;
51298;SDS011;37382;45.192;9.790;2024-01-11T16:36:44;59.55;;;36.30;;
51298;SDS011;37382;45.192;9.790;2024-01-11T16:39:12;60.85;;;38.90;;
51298;SDS011;37382;45.192;9.790;2024-01-11T16:41:42;66.40;;;39.30;;
51298;SDS011;37382;45.192;9.790;2024-01-11T16:44:09;75.53;;;40.20;;
51298;SDS011;37382;45.192;9.790;2024-01-11T16:46:37;77.85;;;41.40;;
51298;SDS011;37382;45.192;9.790;2024-01-11T16:49:04;76.95;;;41.90;;
51298;SDS011;37382;45.192;9.790;2024-01-11T16:51:32;64.65;;;40.25;;
51298;SDS011;37382;45.192;9.790;2024-01-11T16:54:00;83.45;;;39.17;;
51298;SDS011;37382;45.192;9.790;2024-01-11T16:56:27;66.45;;;37.38;;
51298;SDS011;37382;45.192;9.790;2024-01-11T16:58:55;63.10;;;38.70;;
51298;SDS011;37382;45.192;9.790;2024-01-11T17:01:22;67.60;;;37.60;;
51298;SDS011;37382;45.192;9.790;2024-01-11T17:03:56;69.07;;;35.58;;
51298;SDS011;37382;45.192;9.790;2024-01-11T17:06:24;64.03;;;35.90;;
51298;SDS011;37382;45.192;9.790;2024-01-11T17:08:52;65.65;;;37.08;;
51298;SDS011;37382;45.192;9.790;2024-01-11T17:11:20;69.25;;;37.90;;
51298;SDS011;37382;45.192;9.790;2024-01-11T17:13:47;60.80;;;37.05;;
51298;SDS011;37382;45.192;9.790;2024-01-11T17:16:18;64.70;;;35.30;;
51298;SDS011;37382;45.192;9.790;2024-01-11T17:18:48;64.30;;;35.92;;
51298;SDS011;37382;45.192;9.790;2024-01-11T17:21:16;63.83;;;37.40;;
51298;SDS011;37382;45.192;9.790;2024-01-11T17:23:43;64.05;;;36.70;;
51298;SDS011;37382;45.192;9.790;2024-01-11T17:26:11;70.43;;;37.35;;
51298;SDS011;37382;45.192;9.790;2024-01-11T17:28:39;71.53;;;36.97;;
51298;SDS011;37382;45.192;9.790;2024-01-11T17:31:06;70.78;;;36.08;;
51298;SDS011;37382;45.192;9.790;2024-01-11T17:33:34;70.90;;;37.17;;
51298;SDS011;37382;45.192;9.790;2024-01-11T17:36:02;67.97;;;37.53;;
51298;SDS011;37382;45.192;9.790;2024-01-11T17:38:30;66.57;;;38.35;;
51298;SDS011;37382;45.192;9.790;2024-01-11T17:40:57;79.60;;;42.53;;
51298;SDS011;37382;45.192;9.790;2024-01-11T17:43:25;65.07;;;40.28;;
51298;SDS011;37382;45.192;9.790;2024-01-11T17:45:53;76.45;;;44.03;;
51298;SDS011;37382;45.192;9.790;2024-01-11T17:48:20;77.13;;;45.00;;
51298;SDS011;37382;45.192;9.790;2024-01-11T17:50:48;87.25;;;43.67;;
51298;SDS011;37382;45.192;9.790;2024-01-11T17:53:16;83.45;;;44.55;;
51298;SDS011;37382;45.192;9.790;2024-01-11T17:55:43;78.63;;;44.97;;
51298;SDS011;37382;45.192;9.790;2024-01-11T17:58:11;66.68;;;41.55;;
51298;SDS011;37382;45.192;9.790;2024-01-11T18:00:39;76.93;;;42.35;;
51298;SDS011;37382;45.192;9.790;2024-01-11T18:03:07;75.22;;;42.13;;
51298;SDS011;37382;45.192;9.790;2024-01-11T18:05:35;79.75;;;42.17;;
51298;SDS011;37382;45.192;9.790;2024-01-11T18:08:02;68.43;;;41.75;;
51298;SDS011;37382;45.192;9.790;2024-01-11T18:10:34;70.38;;;42.08;;
51298;SDS011;37382;45.192;9.790;2024-01-11T18:13:04;70.22;;;41.78;;
51298;SDS011;37382;45.192;9.790;2024-01-11T18:15:31;68.60;;;41.13;;
51298;SDS011;37382;45.192;9.790;2024-01-11T18:17:59;83.30;;;42.88;;
51298;SDS011;37382;45.192;9.790;2024-01-11T18:20:27;93.38;;;53.63;;
51298;SDS011;37382;45.192;9.790;2024-01-11T18:22:55;74.07;;;47.40;;
51298;SDS011;37382;45.192;9.790;2024-01-11T18:25:22;75.30;;;44.42;;
51298;SDS011;37382;45.192;9.790;2024-01-11T18:27:51;84.38;;;49.47;;
51298;SDS011;37382;45.192;9.790;2024-01-11T18:30:18;82.60;;;47.83;;
51298;SDS011;37382;45.192;9.790;2024-01-11T18:32:46;77.70;;;44.33;;
51298;SDS011;37382;45.192;9.790;2024-01-11T18:35:14;85.70;;;44.38;;
51298;SDS011;37382;45.192;9.790;2024-01-11T18:37:41;81.28;;;44.38;;
51298;SDS011;37382;45.192;9.790;2024-01-11T18:40:09;72.15;;;40.72;;
51298;SDS011;37382;45.192;9.790;2024-01-11T18:42:37;76.75;;;40.97;;
51298;SDS011;37382;45.192;9.790;2024-01-11T18:45:04;73.80;;;40.05;;
51298;SDS011;37382;45.192;9.790;2024-01-11T18:47:33;64.68;;;37.80;;
51298;SDS011;37382;45.192;9.790;2024-01-11T18:50:01;64.65;;;37.58;;
51298;SDS011;37382;45.192;9.790;2024-01-11T18:52:29;61.55;;;35.58;;
51298;SDS011;37382;45.192;9.790;2024-01-11T18:54:58;57.95;;;32.75;;
51298;SDS011;37382;45.192;9.790;2024-01-11T18:57:39;55.88;;;30.80;;
51298;SDS011;37382;45.192;9.790;2024-01-11T19:00:07;47.90;;;28.33;;
51298;SDS011;37382;45.192;9.790;2024-01-11T19:02:37;61.03;;;36.83;;
51298;SDS011;37382;45.192;9.790;2024-01-11T19:05:04;66.13;;;37.22;;
51298;SDS011;37382;45.192;9.790;2024-01-11T19:07:32;75.93;;;39.20;;
51298;SDS011;37382;45.192;9.790;2024-01-11T19:10:00;61.67;;;34.35;;
51298;SDS011;37382;45.192;9.790;2024-01-11T19:12:28;58.47;;;33.75;;
51298;SDS011;37382;45.192;9.790;2024-01-11T19:14:56;62.70;;;33.80;;
51298;SDS011;37382;45.192;9.790;2024-01-11T19:17:24;70.15;;;36.50;;
51298;SDS011;37382;45.192;9.790;2024-01-11T19:19:51;63.78;;;38.08;;
51298;SDS011;37382;45.192;9.790;2024-01-11T19:22:19;74.05;;;41.78;;
51298;SDS011;37382;45.192;9.790;2024-01-11T19:24:46;64.20;;;40.25;;
51298;SDS011;37382;45.192;9.790;2024-01-11T19:27:14;74.40;;;43.35;;
51298;SDS011;37382;45.192;9.790;2024-01-11T19:29:41;72.70;;;43.03;;
51298;SDS011;37382;45.192;9.790;2024-01-11T19:32:11;74.28;;;41.90;;
51298;SDS011;37382;45.192;9.790;2024-01-11T19:34:39;95.72;;;41.67;;
51298;SDS011;37382;45.192;9.790;2024-01-11T19:37:06;73.00;;;41.90;;
51298;SDS011;37382;45.192;9.790;2024-01-11T19:39:34;70.60;;;39.83;;
51298;SDS011;37382;45.192;9.790;2024-01-11T19:42:02;78.53;;;41.22;;
51298;SDS011;37382;45.192;9.790;2024-01-11T19:44:29;71.13;;;41.47;;
51298;SDS011;37382;45.192;9.790;2024-01-11T19:46:57;84.85;;;45.00;;
51298;SDS011;37382;45.192;9.790;2024-01-11T19:49:25;71.63;;;40.30;;
51298;SDS011;37382;45.192;9.790;2024-01-11T19:51:52;77.28;;;41.42;;
51298;SDS011;37382;45.192;9.790;2024-01-11T19:54:20;68.70;;;39.65;;